createdAt,value
2017-08-03T00:01:31.935Z,19.90
2017-08-03T00:03:58.839Z,19.90
2017-08-03T00:06:24.992Z,19.90
2017-08-03T00:08:51.862Z,19.90
2017-08-03T00:11:18.006Z,19.90
2017-08-03T00:13:44.134Z,19.90
2017-08-03T00:16:10.291Z,19.90
2017-08-03T00:18:36.413Z,19.90
2017-08-03T00:21:02.550Z,19.90
2017-08-03T00:23:28.659Z,19.80
2017-08-03T00:25:54.799Z,19.90
2017-08-03T00:28:21.680Z,19.80
2017-08-03T00:30:47.833Z,19.80
2017-08-03T00:33:13.979Z,19.80
2017-08-03T00:35:40.184Z,19.70
2017-08-03T00:38:06.322Z,19.80
2017-08-03T00:40:32.434Z,19.80
2017-08-03T00:42:58.572Z,19.70
2017-08-03T00:45:24.697Z,19.60
2017-08-03T00:47:50.859Z,19.70
2017-08-03T00:50:16.973Z,19.60
2017-08-03T00:52:43.135Z,19.60
2017-08-03T00:55:09.283Z,19.70
2017-08-03T00:57:35.443Z,19.70
2017-08-03T01:00:01.554Z,19.70
2017-08-03T01:02:27.702Z,19.70
2017-08-03T01:04:54.607Z,19.70
2017-08-03T01:07:20.754Z,19.70
2017-08-03T01:09:46.916Z,19.70
2017-08-03T01:12:13.093Z,19.70
2017-08-03T01:14:39.217Z,19.70
2017-08-03T01:17:05.343Z,19.70
2017-08-03T01:19:31.513Z,19.70
2017-08-03T01:21:57.675Z,19.70
2017-08-03T01:24:23.802Z,19.60
2017-08-03T01:26:49.926Z,19.60
2017-08-03T01:29:16.799Z,19.60
2017-08-03T01:31:42.951Z,19.60
2017-08-03T01:34:09.138Z,19.60
2017-08-03T01:36:35.314Z,19.60
2017-08-03T01:39:01.470Z,19.60
2017-08-03T01:41:27.619Z,19.60
2017-08-03T01:43:54.497Z,19.60
2017-08-03T01:46:20.629Z,19.60
2017-08-03T01:48:46.809Z,19.50
2017-08-03T01:51:12.958Z,19.50
2017-08-03T01:53:39.109Z,19.50
2017-08-03T01:56:05.338Z,19.50
2017-08-03T01:58:31.530Z,19.50
2017-08-03T02:00:57.743Z,19.50
2017-08-03T02:03:24.638Z,19.50
2017-08-03T02:05:50.800Z,19.50
2017-08-03T02:08:16.964Z,19.40
2017-08-03T02:10:43.115Z,19.50
2017-08-03T02:13:11.278Z,19.50
2017-08-03T02:15:37.450Z,19.50
2017-08-03T02:18:03.558Z,19.40
2017-08-03T02:20:29.698Z,19.40
2017-08-03T02:22:55.838Z,19.40
2017-08-03T02:25:21.967Z,19.40
2017-08-03T02:27:48.114Z,19.40
2017-08-03T02:30:14.232Z,19.30
2017-08-03T02:32:41.126Z,19.30
2017-08-03T02:35:07.271Z,19.30
2017-08-03T02:37:33.419Z,19.30
2017-08-03T02:39:59.569Z,19.30
2017-08-03T02:42:25.741Z,19.30
2017-08-03T02:44:51.868Z,19.20
2017-08-03T02:47:18.006Z,19.20
2017-08-03T02:49:44.135Z,19.20
2017-08-03T02:52:10.286Z,19.20
2017-08-03T02:54:36.447Z,19.10
2017-08-03T02:57:02.566Z,19.10
2017-08-03T02:59:28.718Z,19.20
2017-08-03T03:01:54.855Z,19.20
2017-08-03T03:04:20.986Z,19.10
2017-08-03T03:06:47.109Z,19.10
2017-08-03T03:09:13.251Z,19.10
2017-08-03T03:11:39.397Z,19.00
2017-08-03T03:14:05.546Z,19.00
2017-08-03T03:16:31.735Z,19.00
2017-08-03T03:18:57.872Z,18.90
2017-08-03T03:21:24.023Z,18.90
2017-08-03T03:23:50.171Z,18.90
2017-08-03T03:26:16.294Z,19.00
2017-08-03T03:28:42.487Z,19.00
2017-08-03T03:31:08.650Z,19.00
2017-08-03T03:33:35.543Z,19.00
2017-08-03T03:36:01.673Z,19.00
2017-08-03T03:38:27.793Z,18.90
2017-08-03T03:40:54.695Z,19.00
2017-08-03T03:43:20.874Z,19.00
2017-08-03T03:45:47.012Z,19.00
2017-08-03T03:48:13.152Z,19.00
2017-08-03T03:50:40.026Z,18.90
2017-08-03T03:53:06.173Z,18.90
2017-08-03T03:55:32.330Z,19.00
2017-08-03T03:57:58.451Z,19.00
2017-08-03T04:00:24.566Z,19.00
2017-08-03T04:02:50.730Z,19.00
2017-08-03T04:05:16.857Z,19.00
2017-08-03T04:07:43.738Z,19.10
2017-08-03T04:10:09.862Z,19.10
2017-08-03T04:12:36.006Z,19.10
2017-08-03T04:15:02.987Z,19.10
2017-08-03T04:17:29.129Z,19.10
2017-08-03T04:19:55.274Z,19.20
2017-08-03T04:22:22.195Z,19.20
2017-08-03T04:24:49.121Z,19.30
2017-08-03T04:27:16.018Z,19.30
2017-08-03T04:29:42.142Z,19.30
2017-08-03T04:32:08.270Z,19.30
2017-08-03T04:34:35.162Z,19.30
2017-08-03T04:37:01.303Z,19.30
2017-08-03T04:39:27.454Z,19.40
2017-08-03T04:41:53.624Z,19.40
2017-08-03T04:44:19.778Z,19.40
2017-08-03T04:46:45.898Z,19.40
2017-08-03T04:49:15.690Z,19.40
2017-08-03T04:51:41.828Z,19.50
2017-08-03T04:54:08.000Z,19.50
2017-08-03T04:56:34.511Z,19.60
2017-08-03T04:59:00.710Z,19.60
2017-08-03T05:01:27.627Z,19.60
2017-08-03T05:03:54.659Z,19.50
2017-08-03T05:06:20.907Z,19.60
2017-08-03T05:08:47.035Z,19.60
2017-08-03T05:11:13.183Z,19.60
2017-08-03T05:13:39.302Z,19.60
2017-08-03T05:16:05.452Z,19.50
2017-08-03T05:18:32.670Z,19.30
2017-08-03T05:20:59.567Z,19.40
2017-08-03T05:23:25.712Z,19.40
2017-08-03T05:25:51.854Z,19.40
2017-08-03T05:28:19.024Z,19.40
2017-08-03T05:30:45.213Z,19.50
2017-08-03T05:33:12.086Z,19.50
2017-08-03T05:35:38.222Z,19.50
2017-08-03T05:38:04.397Z,19.50
2017-08-03T05:40:30.571Z,19.60
2017-08-03T05:42:56.721Z,19.60
2017-08-03T05:45:22.879Z,19.60
2017-08-03T05:47:49.059Z,19.70
2017-08-03T05:50:15.190Z,19.70
2017-08-03T05:52:42.075Z,19.80
2017-08-03T05:55:08.236Z,19.80
2017-08-03T05:57:34.399Z,19.80
2017-08-03T06:00:00.518Z,19.90
2017-08-03T06:02:26.702Z,19.90
2017-08-03T06:04:52.826Z,19.90
2017-08-03T06:07:18.962Z,19.90
2017-08-03T06:09:45.099Z,19.90
2017-08-03T06:12:11.286Z,19.90
2017-08-03T06:14:37.402Z,20.00
2017-08-03T06:17:03.519Z,20.00
2017-08-03T06:19:29.661Z,20.00
2017-08-03T06:21:55.803Z,20.10
2017-08-03T06:24:21.984Z,20.10
2017-08-03T06:26:48.156Z,20.20
2017-08-03T06:29:14.291Z,20.20
2017-08-03T06:31:41.217Z,20.20
2017-08-03T06:34:07.387Z,20.20
2017-08-03T06:36:33.543Z,20.30
2017-08-03T06:39:00.415Z,20.30
2017-08-03T06:41:26.540Z,20.30
2017-08-03T06:43:52.707Z,20.40
2017-08-03T06:46:18.960Z,20.50
2017-08-03T06:48:45.122Z,20.60
2017-08-03T06:51:11.285Z,20.70
2017-08-03T06:53:37.435Z,20.70
2017-08-03T06:56:04.310Z,20.80
2017-08-03T06:58:30.451Z,20.80
2017-08-03T07:00:56.635Z,20.90
2017-08-03T07:03:22.801Z,21.00
2017-08-03T07:05:49.678Z,21.10
2017-08-03T07:08:15.819Z,21.00
2017-08-03T07:10:41.983Z,21.10
2017-08-03T07:13:08.120Z,21.10
2017-08-03T07:15:34.282Z,21.10
2017-08-03T07:18:01.160Z,21.20
2017-08-03T07:20:27.290Z,21.10
2017-08-03T07:22:53.410Z,21.10
2017-08-03T07:25:19.569Z,21.10
2017-08-03T07:27:45.725Z,21.10
2017-08-03T07:30:11.895Z,21.20
2017-08-03T07:32:38.043Z,21.20
2017-08-03T07:35:04.194Z,21.30
2017-08-03T07:37:31.073Z,21.40
2017-08-03T07:39:57.229Z,21.30
2017-08-03T07:42:24.102Z,21.50
2017-08-03T07:44:50.210Z,21.40
2017-08-03T07:47:16.359Z,21.50
2017-08-03T07:49:42.471Z,21.50
2017-08-03T07:52:08.599Z,21.60
2017-08-03T07:54:35.467Z,21.70
2017-08-03T07:57:01.639Z,21.70
2017-08-03T07:59:28.531Z,21.80
2017-08-03T08:01:54.742Z,21.80
2017-08-03T08:04:20.854Z,21.80
2017-08-03T08:06:46.995Z,21.70
2017-08-03T08:09:13.133Z,21.70
2017-08-03T08:11:39.273Z,21.70
2017-08-03T08:14:05.403Z,21.70
2017-08-03T08:16:31.590Z,21.70
2017-08-03T08:18:57.722Z,21.70
2017-08-03T08:21:23.839Z,21.70
2017-08-03T08:23:50.010Z,21.70
2017-08-03T08:26:16.127Z,21.60
2017-08-03T08:28:42.278Z,21.60
2017-08-03T08:31:08.406Z,21.60
2017-08-03T08:33:34.567Z,21.60
2017-08-03T08:36:00.711Z,21.60
2017-08-03T08:38:26.866Z,21.60
2017-08-03T08:40:53.762Z,21.70
2017-08-03T08:43:19.955Z,21.70
2017-08-03T08:45:46.094Z,21.80
2017-08-03T08:48:12.218Z,21.80
2017-08-03T08:50:39.134Z,22.00
2017-08-03T08:53:06.284Z,22.00
2017-08-03T08:55:32.479Z,22.00
2017-08-03T08:57:58.606Z,22.00
2017-08-03T09:00:24.813Z,22.00
2017-08-03T09:02:50.961Z,22.00
2017-08-03T09:05:17.119Z,22.00
2017-08-03T09:07:43.251Z,22.00
2017-08-03T09:10:09.410Z,22.00
2017-08-03T09:12:35.545Z,22.00
2017-08-03T09:15:01.683Z,22.10
2017-08-03T09:17:27.806Z,22.10
2017-08-03T09:19:54.752Z,22.10
2017-08-03T09:22:21.026Z,22.00
2017-08-03T09:24:49.211Z,22.10
2017-08-03T09:27:15.371Z,22.10
2017-08-03T09:29:41.532Z,22.10
2017-08-03T09:32:08.431Z,22.20
2017-08-03T09:34:34.570Z,22.20
2017-08-03T09:37:01.458Z,22.20
2017-08-03T09:39:27.729Z,22.20
2017-08-03T09:41:54.050Z,22.20
2017-08-03T09:44:20.220Z,22.30
2017-08-03T09:46:46.384Z,22.40
2017-08-03T09:49:12.552Z,22.50
2017-08-03T09:51:38.699Z,22.50
2017-08-03T09:54:04.866Z,22.50
2017-08-03T09:56:31.023Z,22.50
2017-08-03T09:58:57.533Z,22.50
2017-08-03T10:01:23.860Z,22.50
2017-08-03T10:03:50.015Z,22.50
2017-08-03T10:06:16.215Z,22.50
2017-08-03T10:08:42.383Z,22.60
2017-08-03T10:11:09.255Z,22.70
2017-08-03T10:13:35.410Z,22.70
2017-08-03T10:16:02.293Z,22.70
2017-08-03T10:18:28.429Z,22.70
2017-08-03T10:20:54.589Z,22.70
2017-08-03T10:23:20.770Z,22.80
2017-08-03T10:25:46.934Z,22.80
2017-08-03T10:28:13.070Z,22.90
2017-08-03T10:30:39.256Z,22.90
2017-08-03T10:33:05.423Z,23.00
2017-08-03T10:35:32.315Z,23.10
2017-08-03T10:37:58.439Z,23.10
2017-08-03T10:40:24.617Z,23.20
2017-08-03T10:42:50.759Z,23.20
2017-08-03T10:45:16.912Z,23.30
2017-08-03T10:47:43.037Z,23.30
2017-08-03T10:50:09.186Z,23.40
2017-08-03T10:52:35.318Z,23.50
2017-08-03T10:55:01.519Z,23.50
2017-08-03T10:57:27.663Z,23.60
2017-08-03T10:59:54.609Z,23.60
2017-08-03T11:02:20.788Z,23.60
2017-08-03T11:04:46.954Z,23.60
2017-08-03T11:07:13.127Z,23.60
2017-08-03T11:09:40.010Z,23.80
2017-08-03T11:12:06.175Z,23.80
2017-08-03T11:14:34.354Z,23.80
2017-08-03T11:17:00.528Z,23.90
2017-08-03T11:19:26.691Z,23.90
2017-08-03T11:21:52.838Z,23.90
2017-08-03T11:24:18.979Z,23.80
2017-08-03T11:26:46.823Z,23.90
2017-08-03T11:29:13.695Z,24.00
2017-08-03T11:31:39.895Z,23.90
2017-08-03T11:34:06.193Z,24.00
2017-08-03T11:36:32.395Z,24.00
2017-08-03T11:38:59.272Z,24.00
2017-08-03T11:41:25.455Z,24.00
2017-08-03T11:43:51.631Z,24.10
2017-08-03T11:46:17.787Z,24.10
2017-08-03T11:48:43.950Z,24.20
2017-08-03T11:51:10.083Z,24.20
2017-08-03T11:53:36.995Z,24.40
2017-08-03T11:56:03.155Z,24.40
2017-08-03T11:58:29.330Z,24.50
2017-08-03T12:00:55.520Z,24.60
2017-08-03T12:03:21.699Z,24.80
2017-08-03T12:05:47.842Z,24.90
2017-08-03T12:08:13.973Z,25.10
2017-08-03T12:10:40.171Z,25.40
2017-08-03T12:13:06.324Z,25.50
2017-08-03T12:15:32.519Z,25.50
2017-08-03T12:17:58.697Z,25.70
2017-08-03T12:20:24.907Z,25.80
2017-08-03T12:22:51.050Z,25.90
2017-08-03T12:25:17.198Z,25.70
2017-08-03T12:27:43.392Z,25.70
2017-08-03T12:30:10.315Z,26.10
2017-08-03T12:32:37.181Z,26.20
2017-08-03T12:35:03.344Z,26.10
2017-08-03T12:37:31.213Z,26.20
2017-08-03T12:39:57.362Z,26.20
2017-08-03T12:42:23.514Z,26.40
2017-08-03T12:44:49.678Z,26.30
2017-08-03T12:47:15.853Z,26.30
2017-08-03T12:49:42.754Z,26.40
2017-08-03T12:52:08.904Z,26.40
2017-08-03T12:54:35.815Z,26.40
2017-08-03T12:57:02.963Z,26.40
2017-08-03T12:59:29.866Z,26.80
2017-08-03T13:01:56.031Z,26.80
2017-08-03T13:04:24.282Z,27.00
2017-08-03T13:06:50.463Z,27.20
2017-08-03T13:09:16.615Z,27.30
2017-08-03T13:11:42.746Z,27.20
2017-08-03T13:14:09.205Z,27.30
2017-08-03T13:16:35.517Z,27.70
2017-08-03T13:19:01.720Z,27.60
2017-08-03T13:21:27.907Z,28.00
2017-08-03T13:23:54.056Z,28.50
2017-08-03T13:26:20.263Z,28.70
2017-08-03T13:28:46.390Z,28.90
2017-08-03T13:31:13.299Z,28.90
2017-08-03T13:33:39.455Z,28.90
2017-08-03T13:36:05.636Z,29.10
2017-08-03T13:38:31.774Z,29.50
2017-08-03T13:40:57.919Z,29.80
2017-08-03T13:43:24.058Z,29.60
2017-08-03T13:45:50.197Z,29.50
2017-08-03T13:48:17.084Z,29.20
2017-08-03T13:50:43.213Z,29.20
2017-08-03T13:53:09.390Z,29.40
2017-08-03T13:55:35.557Z,29.40
2017-08-03T13:58:02.454Z,29.20
2017-08-03T14:00:29.468Z,29.20
2017-08-03T14:02:55.802Z,29.00
2017-08-03T14:05:22.963Z,28.70
2017-08-03T14:07:49.867Z,28.50
2017-08-03T14:10:16.045Z,28.50
2017-08-03T14:12:42.219Z,28.60
2017-08-03T14:15:09.123Z,28.40
2017-08-03T14:17:35.291Z,28.30
2017-08-03T14:20:01.458Z,28.50
2017-08-03T14:22:27.620Z,28.30
2017-08-03T14:24:53.789Z,28.30
2017-08-03T14:27:19.968Z,28.10
2017-08-03T14:29:46.125Z,27.90
2017-08-03T14:32:13.056Z,27.90
2017-08-03T14:34:39.959Z,27.90
2017-08-03T14:37:06.112Z,27.90
2017-08-03T14:39:32.300Z,27.90
2017-08-03T14:41:59.187Z,27.70
2017-08-03T14:44:29.094Z,27.70
2017-08-03T14:46:55.262Z,27.60
2017-08-03T14:49:21.431Z,27.50
2017-08-03T14:51:47.563Z,27.60
2017-08-03T14:54:13.716Z,27.50
2017-08-03T14:56:39.822Z,27.50
2017-08-03T14:59:05.999Z,27.50
2017-08-03T15:01:32.131Z,27.40
2017-08-03T15:03:59.054Z,27.40
2017-08-03T15:06:25.207Z,27.40
2017-08-03T15:08:51.346Z,27.40
2017-08-03T15:11:17.537Z,27.40
2017-08-03T15:13:43.735Z,27.40
2017-08-03T15:16:09.886Z,27.40
2017-08-03T15:18:36.031Z,27.40
2017-08-03T15:21:02.211Z,27.40
2017-08-03T15:23:28.327Z,27.40
2017-08-03T15:25:54.487Z,27.40
2017-08-03T15:28:20.655Z,27.30
2017-08-03T15:30:47.574Z,27.10
2017-08-03T15:33:13.711Z,27.10
2017-08-03T15:35:40.646Z,27.10
2017-08-03T15:38:06.796Z,27.00
2017-08-03T15:40:32.995Z,27.10
2017-08-03T15:42:59.123Z,27.00
2017-08-03T15:45:25.326Z,26.90
2017-08-03T15:47:51.491Z,27.00
2017-08-03T15:50:17.655Z,27.00
2017-08-03T15:52:43.863Z,26.90
2017-08-03T15:55:10.015Z,26.80
2017-08-03T15:57:36.162Z,26.80
2017-08-03T16:00:03.183Z,26.70
2017-08-03T16:02:29.295Z,26.70
2017-08-03T16:04:56.271Z,26.80
2017-08-03T16:07:22.403Z,26.80
2017-08-03T16:09:48.554Z,26.90
2017-08-03T16:12:15.431Z,27.00
2017-08-03T16:14:41.563Z,26.90
2017-08-03T16:17:07.707Z,26.90
2017-08-03T16:19:33.890Z,26.90
2017-08-03T16:22:00.115Z,26.80
2017-08-03T16:24:26.270Z,26.80
2017-08-03T16:26:52.449Z,26.90
2017-08-03T16:29:19.390Z,26.80
2017-08-03T16:31:46.323Z,26.90
2017-08-03T16:34:12.504Z,26.80
2017-08-03T16:36:38.667Z,27.00
2017-08-03T16:39:04.794Z,27.00
2017-08-03T16:41:30.999Z,27.00
2017-08-03T16:43:57.180Z,26.90
2017-08-03T16:46:24.070Z,26.70
2017-08-03T16:48:50.278Z,26.60
2017-08-03T16:51:16.439Z,26.60
2017-08-03T16:53:42.582Z,26.40
2017-08-03T16:56:08.781Z,26.30
2017-08-03T16:58:34.956Z,26.30
2017-08-03T17:01:01.839Z,26.10
2017-08-03T17:03:27.988Z,26.10
2017-08-03T17:05:54.122Z,26.10
2017-08-03T17:08:20.299Z,26.10
2017-08-03T17:10:46.439Z,26.00
2017-08-03T17:13:13.335Z,26.00
2017-08-03T17:15:39.503Z,26.00
2017-08-03T17:18:06.797Z,26.10
2017-08-03T17:20:33.071Z,26.10
2017-08-03T17:22:59.264Z,26.00
2017-08-03T17:25:25.422Z,26.00
2017-08-03T17:27:51.595Z,26.00
2017-08-03T17:30:17.737Z,26.00
2017-08-03T17:32:43.932Z,26.00
2017-08-03T17:35:10.079Z,26.00
2017-08-03T17:37:36.218Z,26.00
2017-08-03T17:40:02.353Z,25.90
2017-08-03T17:42:28.536Z,25.80
2017-08-03T17:44:55.398Z,25.70
2017-08-03T17:47:21.543Z,25.70
2017-08-03T17:49:47.659Z,25.70
2017-08-03T17:52:13.774Z,25.60
2017-08-03T17:54:39.922Z,25.50
2017-08-03T17:57:07.769Z,25.40
2017-08-03T17:59:34.636Z,25.40
2017-08-03T18:02:00.763Z,25.40
2017-08-03T18:04:26.907Z,25.40
2017-08-03T18:06:53.057Z,25.30
2017-08-03T18:09:19.226Z,25.30
2017-08-03T18:11:45.367Z,25.30
2017-08-03T18:14:11.499Z,25.20
2017-08-03T18:16:37.635Z,25.20
2017-08-03T18:19:03.799Z,25.10
2017-08-03T18:21:29.927Z,25.10
2017-08-03T18:23:56.066Z,25.00
2017-08-03T18:26:22.200Z,25.00
2017-08-03T18:28:48.336Z,24.90
2017-08-03T18:31:15.227Z,24.80
2017-08-03T18:33:41.404Z,24.80
2017-08-03T18:36:07.531Z,24.80
2017-08-03T18:38:33.654Z,24.70
2017-08-03T18:40:59.820Z,24.70
2017-08-03T18:43:25.946Z,24.60
2017-08-03T18:45:52.090Z,24.60
2017-08-03T18:48:18.231Z,24.50
2017-08-03T18:50:44.379Z,24.50
2017-08-03T18:53:10.506Z,24.50
2017-08-03T18:55:36.650Z,24.40
2017-08-03T18:58:02.782Z,24.30
2017-08-03T19:00:28.926Z,24.30
2017-08-03T19:02:55.082Z,24.30
2017-08-03T19:05:21.250Z,24.20
2017-08-03T19:07:47.410Z,24.20
2017-08-03T19:10:13.551Z,24.10
2017-08-03T19:12:40.417Z,24.00
2017-08-03T19:15:07.266Z,24.00
2017-08-03T19:17:33.414Z,24.00
2017-08-03T19:20:00.319Z,23.90
2017-08-03T19:22:26.446Z,23.90
2017-08-03T19:24:52.566Z,23.90
2017-08-03T19:27:18.722Z,23.80
2017-08-03T19:29:44.846Z,23.80
2017-08-03T19:32:10.982Z,23.80
2017-08-03T19:34:37.139Z,23.70
2017-08-03T19:37:03.377Z,23.70
2017-08-03T19:39:29.582Z,23.70
2017-08-03T19:41:55.778Z,23.70
2017-08-03T19:44:21.915Z,23.70
2017-08-03T19:46:48.801Z,23.60
2017-08-03T19:49:15.682Z,23.70
2017-08-03T19:51:41.809Z,23.60
2017-08-03T19:54:07.944Z,23.60
2017-08-03T19:56:34.868Z,23.60
2017-08-03T19:59:01.727Z,23.60
2017-08-03T20:01:27.879Z,23.50
2017-08-03T20:03:54.010Z,23.60
2017-08-03T20:06:23.315Z,23.50
2017-08-03T20:08:50.215Z,23.40
2017-08-03T20:11:16.432Z,23.40
2017-08-03T20:13:42.555Z,23.40
2017-08-03T20:16:08.690Z,23.30
2017-08-03T20:18:34.854Z,23.20
2017-08-03T20:21:01.006Z,23.20
2017-08-03T20:23:27.926Z,23.00
2017-08-03T20:25:54.794Z,23.00
2017-08-03T20:28:20.934Z,23.00
2017-08-03T20:30:47.059Z,22.90
2017-08-03T20:33:13.208Z,22.80
2017-08-03T20:35:39.334Z,22.70
2017-08-03T20:38:05.470Z,22.50
2017-08-03T20:40:31.596Z,22.40
2017-08-03T20:42:57.742Z,22.40
2017-08-03T20:45:23.874Z,22.40
2017-08-03T20:47:51.559Z,22.40
2017-08-03T20:50:17.697Z,22.40
2017-08-03T20:52:43.836Z,22.40
2017-08-03T20:55:09.970Z,22.40
2017-08-03T20:57:36.103Z,22.30
2017-08-03T21:00:02.227Z,22.40
2017-08-03T21:02:28.359Z,22.30
2017-08-03T21:04:55.224Z,22.10
2017-08-03T21:07:21.407Z,22.10
2017-08-03T21:09:48.274Z,22.10
2017-08-03T21:12:14.394Z,22.00
2017-08-03T21:14:40.528Z,22.00
2017-08-03T21:17:06.658Z,21.90
2017-08-03T21:19:32.810Z,21.90
2017-08-03T21:21:58.953Z,21.90
2017-08-03T21:24:26.182Z,21.90
2017-08-03T21:26:52.566Z,22.00
2017-08-03T21:29:20.762Z,21.80
2017-08-03T21:31:47.978Z,21.70
2017-08-03T21:34:14.111Z,21.60
2017-08-03T21:36:40.259Z,21.60
2017-08-03T21:39:06.390Z,21.50
2017-08-03T21:41:33.266Z,21.50
2017-08-03T21:43:59.415Z,21.50
2017-08-03T21:46:26.322Z,21.50
2017-08-03T21:48:52.506Z,21.40
2017-08-03T21:51:18.640Z,21.50
2017-08-03T21:53:44.829Z,21.60
2017-08-03T21:56:11.078Z,21.70
2017-08-03T21:58:37.238Z,21.80
2017-08-03T22:01:16.730Z,21.80
2017-08-03T22:03:43.622Z,21.80
2017-08-03T22:06:09.771Z,21.80
2017-08-03T22:08:35.897Z,21.80
2017-08-03T22:11:02.069Z,21.80
2017-08-03T22:13:28.236Z,21.80
2017-08-03T22:16:01.410Z,21.80
2017-08-03T22:18:27.548Z,21.80
2017-08-03T22:20:53.715Z,21.80
2017-08-03T22:23:20.587Z,21.80
2017-08-03T22:25:46.807Z,21.90
2017-08-03T22:28:12.983Z,21.80
2017-08-03T22:30:39.138Z,21.80
2017-08-03T22:33:05.314Z,21.80
2017-08-03T22:35:31.488Z,21.80
2017-08-03T22:37:58.378Z,21.80
2017-08-03T22:40:24.663Z,21.80
2017-08-03T22:42:50.829Z,21.80
2017-08-03T22:45:16.982Z,21.80
2017-08-03T22:47:43.158Z,21.80
2017-08-03T22:50:09.327Z,21.70
2017-08-03T22:52:35.486Z,21.70
2017-08-03T22:55:01.651Z,21.70
2017-08-03T22:57:27.824Z,21.70
2017-08-03T22:59:54.695Z,21.60
2017-08-03T23:02:20.834Z,21.60
2017-08-03T23:04:47.018Z,21.60
2017-08-03T23:07:23.749Z,21.60
2017-08-03T23:09:49.879Z,21.50
2017-08-03T23:12:16.015Z,21.50
2017-08-03T23:14:42.154Z,21.50
2017-08-03T23:17:08.335Z,21.50
2017-08-03T23:19:34.483Z,21.50
2017-08-03T23:22:00.618Z,21.50
2017-08-03T23:24:28.062Z,21.50
2017-08-03T23:26:54.209Z,21.50
2017-08-03T23:29:20.335Z,21.40
2017-08-03T23:31:46.506Z,21.40
2017-08-03T23:34:12.959Z,21.40
2017-08-03T23:36:39.127Z,21.40
2017-08-03T23:39:05.268Z,21.40
2017-08-03T23:41:31.418Z,21.40
2017-08-03T23:43:57.554Z,21.40
2017-08-03T23:46:24.421Z,21.30
2017-08-03T23:48:50.562Z,21.20
2017-08-03T23:51:16.690Z,21.20
2017-08-03T23:53:42.851Z,21.20
2017-08-03T23:56:08.958Z,21.20
2017-08-03T23:58:35.103Z,21.20
